Time;durP1;ratioP1;P1;durP2;ratioP2;P2;SDS_P1;SDS_P2;PMS_P1;PMS_P2;Temp;Humidity;BMP_temperature;BMP_pressure;BME280_temperature;BME280_humidity;BME280_pressure;Samples;Min_cycle;Max_cycle;Signal;HPM_P1;HPM_P2
2022/07/24 00:00:23;;;;;;;9.50;6.05;;;;;;;23.19;44.14;95561.75;5087757;28;20073;-80
2022/07/24 00:02:48;;;;;;;12.98;7.00;;;;;;;23.16;44.67;95556.78;5070248;28;20031;-80
2022/07/24 00:05:14;;;;;;;12.55;6.93;;;;;;;23.09;44.43;95552.34;5070026;28;20036;-80
2022/07/24 00:07:39;;;;;;;17.30;7.55;;;;;;;23.08;44.48;95552.59;5069267;28;20024;-80
2022/07/24 00:10:05;;;;;;;12.55;7.57;;;;;;;23.01;44.81;95561.00;5088415;28;20024;-79
2022/07/24 00:12:31;;;;;;;17.38;7.38;;;;;;;23.06;44.86;95566.53;5086924;28;20047;-80
2022/07/24 00:14:56;;;;;;;15.30;6.50;;;;;;;23.04;45.17;95559.63;5053525;28;20028;-79
2022/07/24 00:17:22;;;;;;;10.80;6.28;;;;;;;23.02;45.12;95561.81;5087419;28;20032;-80
2022/07/24 00:19:47;;;;;;;19.63;7.20;;;;;;;23.03;45.29;95560.72;5087260;28;20028;-80
2022/07/24 00:22:12;;;;;;;12.48;6.82;;;;;;;23.00;44.45;95556.59;5069350;28;20043;-79
2022/07/24 00:24:38;;;;;;;10.98;6.75;;;;;;;22.95;45.55;95556.53;5052827;28;20383;-80
2022/07/24 00:27:03;;;;;;;11.15;7.15;;;;;;;22.91;45.42;95556.22;5088459;28;20107;-80
2022/07/24 00:29:29;;;;;;;11.00;6.32;;;;;;;22.92;44.82;95559.78;5087069;28;20456;-79
2022/07/24 00:31:54;;;;;;;12.20;7.97;;;;;;;22.84;45.55;95550.91;5069952;28;20031;-80
2022/07/24 00:34:20;;;;;;;11.80;7.47;;;;;;;22.81;45.52;95561.56;5069065;28;20491;-79
2022/07/24 00:36:45;;;;;;;12.00;7.32;;;;;;;22.78;44.99;95562.88;5069264;28;20984;-79
2022/07/24 00:39:11;;;;;;;18.25;6.72;;;;;;;22.74;45.49;95560.88;5087098;28;20023;-80
2022/07/24 00:41:36;;;;;;;16.05;6.93;;;;;;;22.72;45.93;95563.88;5087375;28;20038;-79
2022/07/24 00:44:10;;;;;;;14.48;7.18;;;;;;;22.48;45.95;95573.09;5052845;28;20020;-79
2022/07/24 00:46:37;;;;;;;14.60;7.18;;;;;;;22.44;45.96;95568.38;5052220;28;20518;-80
2022/07/24 00:49:04;;;;;;;11.02;6.63;;;;;;;22.39;45.59;95568.28;5069489;28;20043;-79
2022/07/24 00:51:29;;;;;;;17.58;7.28;;;;;;;22.42;45.72;95573.25;5068642;28;20028;-80
2022/07/24 00:53:55;;;;;;;9.63;6.60;;;;;;;22.45;45.81;95564.56;5087660;28;20395;-80
2022/07/24 00:56:20;;;;;;;12.57;6.43;;;;;;;22.42;46.33;95568.63;5086414;28;20555;-80
2022/07/24 00:58:46;;;;;;;13.93;6.68;;;;;;;22.39;46.18;95576.47;5087167;28;20101;-80
2022/07/24 01:01:12;;;;;;;11.20;6.45;;;;;;;22.42;45.90;95568.63;5087182;28;20012;-80
2022/07/24 01:03:38;;;;;;;11.35;6.60;;;;;;;22.40;46.22;95568.03;5087236;28;20509;-80
2022/07/24 01:06:03;;;;;;;13.20;6.80;;;;;;;22.24;46.37;95564.22;5087239;28;20031;-80
2022/07/24 01:08:28;;;;;;;12.20;6.50;;;;;;;21.83;46.68;95565.19;5086742;28;20050;-79
2022/07/24 01:10:54;;;;;;;13.85;7.47;;;;;;;21.85;46.48;95562.22;5052703;28;20024;-80
2022/07/24 01:13:19;;;;;;;11.35;6.80;;;;;;;22.00;46.13;95563.56;5068527;28;20414;-80
2022/07/24 01:15:46;;;;;;;14.48;7.25;;;;;;;22.09;45.70;95556.59;5052299;28;20020;-79
2022/07/24 01:18:12;;;;;;;11.40;7.10;;;;;;;22.09;46.07;95548.41;5086602;28;20111;-80
2022/07/24 01:20:38;;;;;;;15.13;7.45;;;;;;;22.15;45.91;95550.16;5087235;28;20031;-80
2022/07/24 01:23:03;;;;;;;12.18;6.53;;;;;;;22.11;46.09;95546.28;5086827;28;20032;-80
2022/07/24 01:25:29;;;;;;;14.20;6.72;;;;;;;22.16;46.19;95553.72;5086370;28;20052;-80
2022/07/24 01:27:54;;;;;;;13.05;6.65;;;;;;;22.00;46.60;95549.91;5068911;28;20028;-80
2022/07/24 01:30:20;;;;;;;11.35;6.22;;;;;;;22.01;46.07;95549.66;5068737;28;20035;-80
2022/07/24 01:32:45;;;;;;;13.48;6.95;;;;;;;22.04;46.74;95549.16;5087514;28;20047;-80
2022/07/24 01:35:10;;;;;;;11.63;7.45;;;;;;;21.97;46.59;95552.03;5068237;28;20032;-80
2022/07/24 01:37:36;;;;;;;10.65;6.95;;;;;;;22.01;46.18;95554.28;5068538;28;20097;-80
2022/07/24 01:40:02;;;;;;;11.88;6.90;;;;;;;21.98;46.77;95552.88;5067955;28;20032;-80
2022/07/24 01:42:27;;;;;;;15.38;7.45;;;;;;;22.00;46.58;95548.00;5086498;28;20057;-81
2022/07/24 01:44:52;;;;;;;9.57;6.50;;;;;;;22.00;46.06;95552.63;5086122;28;20093;-80
2022/07/24 01:47:18;;;;;;;10.05;6.82;;;;;;;21.90;47.16;95543.19;5086215;28;20016;-80
2022/07/24 01:49:43;;;;;;;11.20;6.43;;;;;;;21.85;47.87;95546.66;5068353;28;20032;-80
2022/07/24 01:52:09;;;;;;;11.15;6.60;;;;;;;21.82;47.81;95541.69;5085190;28;20399;-79
2022/07/24 01:54:34;;;;;;;12.80;6.15;;;;;;;21.73;47.20;95543.97;5086610;28;20035;-80
2022/07/24 01:57:00;;;;;;;19.40;7.03;;;;;;;21.71;47.16;95540.66;5050486;28;20089;-80
2022/07/24 01:59:25;;;;;;;13.02;6.30;;;;;;;21.66;47.44;95537.00;5086498;28;20032;-79
2022/07/24 02:01:51;;;;;;;11.20;6.35;;;;;;;21.67;47.19;95538.66;5067789;28;20028;-79
2022/07/24 02:04:16;;;;;;;10.90;6.70;;;;;;;21.64;47.34;95544.59;5068070;28;20037;-79
2022/07/24 02:06:41;;;;;;;10.43;6.75;;;;;;;21.51;47.15;95538.38;5086076;28;20059;-79
2022/07/24 02:09:07;;;;;;;11.43;6.43;;;;;;;21.46;47.39;95532.81;5066901;28;20024;-79
2022/07/24 02:11:32;;;;;;;10.77;6.60;;;;;;;21.47;47.27;95534.50;5068180;28;20089;-80
2022/07/24 02:13:59;;;;;;;12.93;6.68;;;;;;;21.49;47.12;95535.06;5050164;28;20058;-79
2022/07/24 02:16:25;;;;;;;11.98;6.93;;;;;;;21.45;47.16;95526.56;5085984;28;20105;-79
2022/07/24 02:18:51;;;;;;;13.30;7.25;;;;;;;21.46;47.42;95530.09;5067343;28;20478;-79
2022/07/24 02:21:16;;;;;;;9.98;6.50;;;;;;;21.26;47.79;95545.00;5086006;28;20054;-80
2022/07/24 02:23:43;;;;;;;13.60;6.40;;;;;;;21.26;47.87;95538.72;5085819;28;20028;-80
2022/07/24 02:26:08;;;;;;;12.10;6.40;;;;;;;21.35;47.72;95540.00;5067113;28;20101;-79
2022/07/24 02:28:34;;;;;;;12.75;6.57;;;;;;;21.33;47.55;95542.97;5067787;28;20028;-80
2022/07/24 02:30:59;;;;;;;11.18;6.35;;;;;;;21.34;47.55;95541.91;5084902;28;20032;-79
2022/07/24 02:33:25;;;;;;;13.02;6.65;;;;;;;21.31;47.75;95541.56;5067907;28;20543;-79
2022/07/24 02:35:50;;;;;;;13.57;6.63;;;;;;;21.28;47.86;95544.78;5084074;28;20056;-80
2022/07/24 02:38:16;;;;;;;15.93;6.97;;;;;;;21.23;47.66;95540.84;5085760;28;20039;-80
2022/07/24 02:40:41;;;;;;;14.95;6.80;;;;;;;21.08;47.45;95538.66;5085279;28;20028;-80
2022/07/24 02:43:06;;;;;;;11.77;6.15;;;;;;;21.18;47.39;95537.22;5084922;28;20031;-79
2022/07/24 02:45:32;;;;;;;13.50;6.18;;;;;;;21.17;47.50;95547.28;5085369;28;20417;-80
2022/07/24 02:47:57;;;;;;;13.63;6.47;;;;;;;21.21;47.37;95548.47;5084687;28;20483;-80
2022/07/24 02:50:25;;;;;;;12.65;6.70;;;;;;;21.18;47.52;95550.84;5067345;28;20474;-80
2022/07/24 02:52:50;;;;;;;11.13;6.47;;;;;;;21.09;47.41;95545.75;5084625;28;20114;-80
2022/07/24 02:55:16;;;;;;;14.68;6.40;;;;;;;21.02;48.11;95549.69;5050661;28;20550;-80
2022/07/24 02:57:41;;;;;;;11.48;7.00;;;;;;;21.02;48.09;95546.97;5066622;28;20032;-79
2022/07/24 03:00:09;;;;;;;12.48;6.88;;;;;;;21.08;47.85;95546.00;5050808;28;20020;-80
2022/07/24 03:02:35;;;;;;;10.65;6.60;;;;;;;21.08;47.65;95535.94;5067295;28;20032;-80
2022/07/24 03:05:01;;;;;;;12.52;6.63;;;;;;;21.10;47.44;95541.16;5085510;28;20108;-81
2022/07/24 03:07:26;;;;;;;12.80;6.72;;;;;;;21.13;47.59;95537.94;5067025;28;20028;-79
2022/07/24 03:09:52;;;;;;;10.75;6.25;;;;;;;21.16;47.34;95544.78;5066542;28;20024;-79
2022/07/24 03:12:17;;;;;;;11.02;6.63;;;;;;;21.14;47.28;95552.38;5067219;28;20070;-79
2022/07/24 03:14:42;;;;;;;9.77;6.68;;;;;;;21.09;48.16;95547.66;5084560;28;20031;-79
2022/07/24 03:17:08;;;;;;;12.98;7.40;;;;;;;21.03;48.37;95552.19;5067184;28;20040;-79
2022/07/24 03:19:33;;;;;;;13.98;7.80;;;;;;;21.05;48.38;95547.34;5066336;28;20040;-79
2022/07/24 03:21:59;;;;;;;13.95;7.22;;;;;;;21.05;47.99;95544.59;5085139;28;20043;-80
2022/07/24 03:24:24;;;;;;;12.15;7.00;;;;;;;21.13;47.93;95543.41;5068469;28;20035;-80
2022/07/24 03:26:50;;;;;;;11.05;6.88;;;;;;;21.09;48.02;95545.75;5066389;28;20513;-80
2022/07/24 03:29:15;;;;;;;14.40;7.65;;;;;;;21.01;46.85;95540.69;5067027;28;20866;-81
2022/07/24 03:31:40;;;;;;;13.20;7.32;;;;;;;21.07;46.45;95541.63;5065784;28;20418;-81
2022/07/24 03:34:06;;;;;;;11.95;7.10;;;;;;;21.12;46.39;95545.28;5085321;28;20024;-80
2022/07/24 03:36:32;;;;;;;13.68;7.63;;;;;;;21.12;46.65;95548.00;5084198;28;20028;-81
2022/07/24 03:38:57;;;;;;;12.85;7.43;;;;;;;21.15;46.50;95549.41;5050453;28;20441;-80
2022/07/24 03:41:23;;;;;;;15.70;7.78;;;;;;;21.17;46.66;95541.00;5066405;28;20455;-80
2022/07/24 03:43:48;;;;;;;15.63;6.97;;;;;;;21.22;46.45;95539.22;5084997;28;20016;-80
2022/07/24 03:46:14;;;;;;;10.75;7.15;;;;;;;21.12;47.10;95544.44;5051595;28;20028;-80
2022/07/24 03:48:39;;;;;;;16.33;7.57;;;;;;;21.15;47.45;95545.88;5084273;28;20044;-80
2022/07/24 03:51:05;;;;;;;13.80;7.28;;;;;;;21.20;47.53;95540.53;5085032;28;20039;-80
2022/07/24 03:53:30;;;;;;;14.75;8.13;;;;;;;21.21;47.60;95539.44;5083837;28;20063;-80
2022/07/24 03:55:55;;;;;;;19.77;7.88;;;;;;;21.22;47.69;95541.09;5070138;28;20035;-79
2022/07/24 03:58:21;;;;;;;15.38;8.20;;;;;;;21.19;47.90;95549.75;5088065;28;20105;-80
2022/07/24 04:00:46;;;;;;;17.15;8.20;;;;;;;21.24;47.35;95552.59;5069911;28;20020;-79
2022/07/24 04:03:12;;;;;;;19.27;7.95;;;;;;;21.30;47.46;95562.53;5088281;28;20099;-80
2022/07/24 04:05:37;;;;;;;12.70;7.18;;;;;;;21.35;47.52;95546.28;5087850;28;20024;-80
2022/07/24 04:08:03;;;;;;;16.08;7.60;;;;;;;21.43;47.56;95552.41;5088387;28;20104;-79
2022/07/24 04:10:28;;;;;;;13.45;7.43;;;;;;;21.41;47.05;95546.38;5087433;28;20099;-79
2022/07/24 04:12:54;;;;;;;14.48;7.65;;;;;;;21.44;47.89;95552.16;5070323;28;20028;-79
2022/07/24 04:15:19;;;;;;;15.02;7.72;;;;;;;21.50;48.95;95542.19;5069356;28;20016;-79
2022/07/24 04:17:45;;;;;;;17.17;7.45;;;;;;;21.53;47.17;95547.16;5070170;28;20017;-80
2022/07/24 04:20:10;;;;;;;17.25;7.55;;;;;;;21.48;46.60;95547.06;5087761;28;20499;-80
2022/07/24 04:22:36;;;;;;;20.58;8.48;;;;;;;21.50;47.09;95547.66;5036321;28;20051;-80
2022/07/24 04:25:02;;;;;;;12.57;8.18;;;;;;;21.58;47.25;95552.72;5069657;28;20031;-79
2022/07/24 04:27:27;;;;;;;16.67;8.10;;;;;;;21.67;48.64;95550.41;5087403;28;20422;-80
2022/07/24 04:29:53;;;;;;;14.25;7.65;;;;;;;21.73;48.93;95556.81;5087879;28;20052;-80
2022/07/24 04:32:18;;;;;;;14.05;7.68;;;;;;;21.81;48.14;95550.94;5087343;28;20024;-79
2022/07/24 04:34:44;;;;;;;16.17;8.10;;;;;;;21.94;47.26;95559.91;5087955;28;20388;-80
2022/07/24 04:37:09;;;;;;;15.93;8.27;;;;;;;22.01;46.91;95566.03;5068954;28;20598;-80
2022/07/24 04:39:35;;;;;;;13.05;7.55;;;;;;;22.13;46.53;95563.25;5087874;28;20020;-80
2022/07/24 04:42:01;;;;;;;18.60;7.57;;;;;;;22.29;48.10;95567.06;5087431;28;20048;-81
2022/07/24 04:44:26;;;;;;;13.82;7.25;;;;;;;22.37;48.08;95559.50;5072037;28;20518;-80
2022/07/24 04:46:52;;;;;;;18.10;8.10;;;;;;;22.45;47.70;95557.19;5080333;28;20028;-79
2022/07/24 04:49:17;;;;;;;16.50;8.20;;;;;;;22.59;45.72;95556.81;5052354;28;20028;-79
2022/07/24 04:51:42;;;;;;;17.30;7.80;;;;;;;22.66;45.22;95560.25;5052741;28;20114;-81
2022/07/24 04:54:08;;;;;;;12.18;7.63;;;;;;;22.82;46.43;95553.09;5087136;28;20455;-80
2022/07/24 04:56:33;;;;;;;12.50;7.55;;;;;;;22.97;47.04;95554.38;5052767;28;20407;-80
2022/07/24 04:59:01;;;;;;;14.20;7.60;;;;;;;23.07;48.48;95551.75;5086706;28;20039;-80
2022/07/24 05:01:27;;;;;;;14.32;8.18;;;;;;;23.04;45.80;95552.28;5069498;28;20028;-80
2022/07/24 05:03:52;;;;;;;16.08;7.43;;;;;;;23.19;46.36;95559.84;5086645;28;20035;-80
2022/07/24 05:06:17;;;;;;;20.45;8.63;;;;;;;23.30;46.36;95574.47;5086277;28;20028;-80
2022/07/24 05:08:43;;;;;;;12.40;7.45;;;;;;;23.34;46.18;95570.13;5087252;28;20043;-80
2022/07/24 05:11:08;;;;;;;13.50;8.02;;;;;;;23.50;45.65;95573.09;5068342;28;20306;-81
2022/07/24 05:13:34;;;;;;;14.30;7.10;;;;;;;23.63;45.31;95569.16;5087260;28;20020;-81
2022/07/24 05:15:59;;;;;;;13.88;7.15;;;;;;;23.68;43.71;95569.19;5086153;28;20031;-80
2022/07/24 05:18:25;;;;;;;12.88;7.20;;;;;;;23.84;43.64;95566.63;5087282;28;20028;-80
2022/07/24 05:20:50;;;;;;;14.90;7.55;;;;;;;23.84;43.27;95566.63;5068106;28;20483;-80
2022/07/24 05:23:15;;;;;;;15.57;7.82;;;;;;;24.00;41.93;95553.88;5086714;28;20027;-80
2022/07/24 05:25:41;;;;;;;12.38;7.35;;;;;;;24.12;42.23;95561.91;5051770;28;20051;-82
2022/07/24 05:28:06;;;;;;;16.90;7.05;;;;;;;24.24;43.13;95564.53;5068078;28;20027;-80
2022/07/24 05:30:32;;;;;;;13.35;7.63;;;;;;;24.04;41.54;95567.88;5068685;28;20024;-80
2022/07/24 05:32:57;;;;;;;12.65;7.30;;;;;;;24.17;42.35;95562.00;5085837;28;20505;-80
2022/07/24 05:35:23;;;;;;;14.35;7.65;;;;;;;24.34;42.38;95552.00;5068577;28;20483;-81
2022/07/24 05:37:48;;;;;;;16.73;7.88;;;;;;;24.45;41.63;95548.25;5067928;28;20387;-81
2022/07/24 05:40:13;;;;;;;14.30;7.53;;;;;;;24.63;41.53;95548.91;5086417;28;20490;-80
2022/07/24 05:42:39;;;;;;;11.98;7.75;;;;;;;24.70;41.04;95557.72;5086196;28;20027;-80
2022/07/24 05:45:05;;;;;;;10.38;7.30;;;;;;;24.85;40.58;95547.94;5085978;28;20077;-81
2022/07/24 05:47:37;;;;;;;12.85;7.50;;;;;;;25.00;39.57;95559.03;5068182;28;20028;-81
2022/07/24 05:50:06;;;;;;;13.27;7.43;;;;;;;25.12;39.84;95553.31;5050587;28;20024;-80
2022/07/24 05:52:31;;;;;;;15.27;7.57;;;;;;;25.14;40.43;95555.78;5068243;28;20032;-80
2022/07/24 05:54:57;;;;;;;19.35;8.25;;;;;;;25.12;40.08;95541.50;5085479;28;20020;-81
2022/07/24 05:57:22;;;;;;;16.42;8.27;;;;;;;25.29;39.72;95542.13;5067774;28;20047;-82
2022/07/24 05:59:47;;;;;;;20.98;8.73;;;;;;;25.48;39.30;95551.78;5085967;28;20024;-81
2022/07/24 06:02:13;;;;;;;15.38;8.18;;;;;;;25.23;39.48;95556.09;5086122;28;20032;-81
2022/07/24 06:04:41;;;;;;;18.58;7.97;;;;;;;25.38;39.61;95561.66;5051389;28;20020;-81
2022/07/24 06:07:09;;;;;;;17.08;8.35;;;;;;;25.44;41.21;95562.47;5067545;28;20035;-80
2022/07/24 06:09:35;;;;;;;15.25;8.13;;;;;;;25.67;40.90;95565.88;5068248;28;20031;-80
2022/07/24 06:12:00;;;;;;;12.35;7.45;;;;;;;25.78;40.54;95563.97;5085281;28;20548;-81
2022/07/24 06:14:26;;;;;;;16.08;8.57;;;;;;;25.72;40.28;95560.41;5086125;28;20028;-80
2022/07/24 06:16:51;;;;;;;14.13;8.15;;;;;;;25.83;40.60;95557.69;5066973;28;20094;-81
2022/07/24 06:19:17;;;;;;;15.40;7.50;;;;;;;26.00;40.38;95549.19;5067705;28;20073;-80
2022/07/24 06:21:42;;;;;;;11.82;7.78;;;;;;;26.16;39.88;95550.03;5067843;28;20031;-81
2022/07/24 06:24:07;;;;;;;12.32;7.55;;;;;;;26.05;39.30;95544.50;5067584;28;20031;-81
2022/07/24 06:26:33;;;;;;;13.88;8.30;;;;;;;25.98;38.60;95535.72;5067386;28;20047;-81
2022/07/24 06:28:58;;;;;;;12.88;7.93;;;;;;;26.08;38.26;95540.41;5067071;28;20452;-81
2022/07/24 06:31:24;;;;;;;14.52;7.75;;;;;;;26.32;37.87;95547.28;5085799;28;20057;-80
2022/07/24 06:33:49;;;;;;;16.42;8.80;;;;;;;26.29;37.67;95541.22;5085162;28;20035;-82
2022/07/24 06:36:15;;;;;;;14.88;8.07;;;;;;;26.51;37.25;95537.38;5067466;28;20031;-81
2022/07/24 06:38:40;;;;;;;16.30;8.70;;;;;;;26.52;37.54;95535.47;5085827;28;20553;-81
2022/07/24 06:41:06;;;;;;;17.58;8.52;;;;;;;26.65;37.42;95536.81;5086385;28;20024;-82
2022/07/24 06:43:31;;;;;;;13.07;7.93;;;;;;;26.61;38.16;95532.97;5066968;28;20395;-80
2022/07/24 06:45:56;;;;;;;17.83;8.10;;;;;;;26.86;37.49;95528.53;5085255;28;20482;-80
2022/07/24 06:48:22;;;;;;;13.82;8.38;;;;;;;27.09;37.58;95527.09;5085649;28;20054;-81
2022/07/24 06:50:47;;;;;;;11.00;7.78;;;;;;;27.15;38.27;95516.88;5085020;28;20480;-80
2022/07/24 06:53:13;;;;;;;11.75;7.55;;;;;;;27.27;38.28;95522.91;5067679;28;20032;-82
2022/07/24 06:55:38;;;;;;;16.73;8.73;;;;;;;27.36;37.18;95516.78;5085063;28;20031;-82
2022/07/24 06:58:04;;;;;;;17.73;8.40;;;;;;;27.38;36.98;95511.81;5085554;28;20465;-81
2022/07/24 07:00:30;;;;;;;23.63;8.18;;;;;;;27.52;36.87;95518.34;5085155;28;20075;-81
2022/07/24 07:02:55;;;;;;;16.38;9.07;;;;;;;27.17;36.66;95514.66;5067304;28;20045;-81
2022/07/24 07:05:21;;;;;;;15.07;7.97;;;;;;;26.95;37.34;95515.84;5085448;28;20020;-82
2022/07/24 07:07:46;;;;;;;16.10;8.10;;;;;;;27.27;37.03;95511.88;5066407;28;20052;-81
2022/07/24 07:10:12;;;;;;;17.92;8.00;;;;;;;27.45;36.86;95515.09;5067472;28;20039;-81
2022/07/24 07:12:38;;;;;;;17.65;8.75;;;;;;;27.64;36.66;95511.69;5084805;28;20849;-80
2022/07/24 07:15:04;;;;;;;30.63;9.15;;;;;;;27.88;35.11;95508.25;5085591;28;20016;-81
2022/07/24 07:17:29;;;;;;;28.75;9.27;;;;;;;27.84;36.49;95507.19;5066869;28;20028;-81
2022/07/24 07:19:55;;;;;;;38.75;9.68;;;;;;;27.69;36.23;95511.69;5085427;28;20032;-81
2022/07/24 07:22:20;;;;;;;35.97;10.35;;;;;;;27.88;36.66;95514.56;5085087;28;20047;-81
2022/07/24 07:24:46;;;;;;;55.35;11.32;;;;;;;28.04;36.20;95510.88;5049964;28;20028;-82
2022/07/24 07:27:11;;;;;;;53.20;11.77;;;;;;;28.03;36.08;95510.06;5067138;28;20048;-82
2022/07/24 07:29:37;;;;;;;49.08;12.05;;;;;;;27.43;36.36;95503.53;5087517;28;20052;-81
2022/07/24 07:32:02;;;;;;;35.92;10.77;;;;;;;27.64;36.99;95504.25;5089689;28;20088;-80
2022/07/24 07:34:28;;;;;;;26.40;8.98;;;;;;;27.80;36.31;95506.91;5088655;28;20024;-81
2022/07/24 07:36:53;;;;;;;29.90;9.45;;;;;;;28.13;34.97;95503.66;5070803;28;20024;-81
2022/07/24 07:39:18;;;;;;;19.95;8.77;;;;;;;28.26;35.39;95500.22;5070716;28;20028;-81
2022/07/24 07:41:44;;;;;;;23.73;9.13;;;;;;;28.40;34.35;95505.09;5053803;28;20525;-81
2022/07/24 07:44:09;;;;;;;23.52;8.73;;;;;;;28.52;34.66;95498.38;5070575;28;20024;-81
2022/07/24 07:46:35;;;;;;;18.45;8.30;;;;;;;28.59;34.09;95501.59;5088293;28;20032;-82
2022/07/24 07:49:00;;;;;;;24.67;8.55;;;;;;;28.72;35.33;95502.84;5071192;28;20028;-81
2022/07/24 07:51:26;;;;;;;14.95;8.27;;;;;;;28.79;33.70;95491.47;5088332;28;20422;-81
2022/07/24 07:53:51;;;;;;;14.73;7.93;;;;;;;28.82;33.68;95496.38;5070647;28;20024;-81
2022/07/24 07:56:17;;;;;;;14.85;7.53;;;;;;;28.85;33.62;95501.31;5053377;28;20036;-82
2022/07/24 07:58:42;;;;;;;14.35;7.22;;;;;;;28.72;33.63;95487.13;5070665;28;20060;-82
2022/07/24 08:01:07;;;;;;;10.77;6.95;;;;;;;28.84;33.06;95494.97;5088594;28;20035;-80
2022/07/24 08:03:33;;;;;;;11.93;7.03;;;;;;;28.57;34.53;95495.53;5070354;28;20028;-80
2022/07/24 08:06:00;;;;;;;13.80;7.68;;;;;;;28.73;34.36;95488.75;5088932;28;20031;-83
2022/07/24 08:08:25;;;;;;;17.35;7.78;;;;;;;28.95;35.26;95498.44;5069911;28;20409;-80
2022/07/24 08:10:50;;;;;;;17.08;7.45;;;;;;;29.19;33.42;95491.28;5053773;28;20498;-81
2022/07/24 08:13:17;;;;;;;17.23;7.40;;;;;;;29.23;33.29;95495.09;5087646;28;20035;-81
2022/07/24 08:15:43;;;;;;;13.52;6.85;;;;;;;29.20;33.06;95491.00;5053791;28;20081;-81
2022/07/24 08:18:09;;;;;;;15.95;8.35;;;;;;;29.19;33.07;95494.88;5087971;28;20115;-80
2022/07/24 08:20:34;;;;;;;22.23;8.23;;;;;;;29.34;33.19;95498.56;5070269;28;20414;-81
2022/07/24 08:23:01;;;;;;;17.45;7.75;;;;;;;29.23;32.94;95501.44;5088248;28;20144;-81
2022/07/24 08:25:26;;;;;;;11.32;7.03;;;;;;;29.32;32.43;95495.25;5069493;28;20356;-80
2022/07/24 08:27:52;;;;;;;15.38;7.50;;;;;;;29.44;31.54;95492.88;5087925;28;20435;-81
2022/07/24 08:30:17;;;;;;;12.25;7.28;;;;;;;29.43;32.40;95496.78;5052681;28;20043;-82
2022/07/24 08:32:43;;;;;;;12.60;7.78;;;;;;;29.32;31.76;95492.50;5069967;28;20027;-82
2022/07/24 08:35:09;;;;;;;14.68;7.45;;;;;;;29.46;31.18;95487.06;5069757;28;20400;-82
2022/07/24 08:37:39;;;;;;;16.40;7.40;;;;;;;29.54;31.50;95483.63;5053383;28;20119;-83
2022/07/24 08:40:05;;;;;;;17.98;8.10;;;;;;;29.63;31.95;95491.28;5070306;28;20507;-81
2022/07/24 08:42:31;;;;;;;15.48;7.68;;;;;;;29.74;31.78;95496.34;5069567;28;20028;-81
2022/07/24 08:44:56;;;;;;;15.43;8.10;;;;;;;29.84;30.90;95489.03;5069483;28;20028;-80
2022/07/24 08:47:21;;;;;;;14.70;7.18;;;;;;;29.92;31.03;95485.56;5069023;28;20474;-80
2022/07/24 08:49:47;;;;;;;14.25;7.43;;;;;;;30.03;31.62;95489.00;5069565;28;20028;-82
2022/07/24 08:52:14;;;;;;;15.30;6.95;;;;;;;29.77;31.30;95480.28;5052159;28;20456;-80
2022/07/24 08:54:39;;;;;;;14.77;7.95;;;;;;;29.55;31.89;95478.94;5053768;28;20059;-80
2022/07/24 08:57:05;;;;;;;22.58;8.20;;;;;;;29.64;31.47;95488.22;5087323;28;20036;-81
2022/07/24 08:59:30;;;;;;;14.20;8.13;;;;;;;29.65;32.76;95478.81;5069271;28;20020;-82
2022/07/24 09:01:56;;;;;;;18.60;8.38;;;;;;;29.51;31.87;95481.47;5069380;28;20513;-82
2022/07/24 09:04:47;;;;;;;20.92;8.48;;;;;;;29.66;32.23;95469.41;5069188;28;20045;-81
2022/07/24 09:07:18;;;;;;;18.20;7.40;;;;;;;29.73;32.19;95472.59;5065368;28;20067;-81
2022/07/24 09:09:44;;;;;;;15.20;8.02;;;;;;;29.91;32.01;95477.56;5086898;28;20438;-81
2022/07/24 09:12:16;;;;;;;16.13;7.50;;;;;;;30.00;32.11;95470.25;5069162;28;20035;-81
2022/07/24 09:14:45;;;;;;;;;;;;;;;30.29;32.30;95468.44;5052734;28;20101;-80
2022/07/24 09:17:13;;;;;;;16.70;7.75;;;;;;;30.33;31.83;95473.03;5086783;28;19918;-82
2022/07/24 09:19:56;;;;;;;14.25;8.30;;;;;;;30.12;31.20;95467.00;5069320;28;20036;-83
2022/07/24 09:22:33;;;;;;;14.32;7.60;;;;;;;30.28;31.72;95467.59;5052355;28;20023;-82
2022/07/24 09:25:18;;;;;;;18.23;8.05;;;;;;;30.13;29.76;95454.84;5069062;28;20028;-82
2022/07/24 09:27:49;;;;;;;12.93;7.82;;;;;;;30.44;29.33;95459.84;5065106;28;20075;-80
2022/07/24 09:30:27;;;;;;;15.43;7.68;;;;;;;30.50;29.82;95459.75;5066368;28;20028;-81
2022/07/24 09:32:56;;;;;;;14.80;7.57;;;;;;;30.36;29.93;95460.53;5069201;28;20031;-81
2022/07/24 09:35:33;;;;;;;12.77;7.32;;;;;;;30.32;30.01;95462.28;5069454;28;20043;-82
2022/07/24 09:37:59;;;;;;;17.15;7.40;;;;;;;30.43;30.53;95463.75;5066843;28;20086;-80
2022/07/24 09:40:55;;;;;;;11.90;6.75;;;;;;;30.51;29.53;95455.84;5066255;28;20402;-82
2022/07/24 09:43:25;;;;;;;17.40;7.28;;;;;;;30.40;28.36;95453.28;5062501;28;20040;-82
2022/07/24 09:46:01;;;;;;;14.80;8.00;;;;;;;30.39;28.95;95448.06;5049080;28;20426;-82
2022/07/24 09:48:56;;;;;;;17.30;7.55;;;;;;;30.47;29.25;95450.13;5065482;28;20032;-82
2022/07/24 09:51:22;;;;;;;14.45;7.40;;;;;;;30.57;27.91;95449.09;5065337;28;20482;-81
2022/07/24 09:53:53;;;;;;;12.90;7.05;;;;;;;30.62;28.70;95443.47;5047702;28;20096;-82
2022/07/24 09:56:18;;;;;;;12.93;7.40;;;;;;;30.87;28.74;95438.59;5064049;28;20560;-82
2022/07/24 09:58:44;;;;;;;11.18;6.72;;;;;;;30.99;28.74;95440.03;5066195;28;20179;-81
2022/07/24 10:01:09;;;;;;;10.95;6.97;;;;;;;30.90;29.11;95443.50;5063753;28;20558;-82
2022/07/24 10:03:38;;;;;;;14.38;7.68;;;;;;;30.86;28.98;95436.94;5064773;28;20111;-82
2022/07/24 10:06:05;;;;;;;12.88;6.65;;;;;;;30.88;27.42;95433.84;5064049;28;20020;-82
2022/07/24 10:08:31;;;;;;;13.73;6.55;;;;;;;31.03;26.90;95424.41;5065816;28;20379;-82
2022/07/24 10:10:57;;;;;;;12.75;7.13;;;;;;;30.78;27.42;95424.59;5064479;28;20028;-81
2022/07/24 10:13:27;;;;;;;16.23;6.82;;;;;;;31.03;26.88;95418.88;5065439;28;20024;-82
2022/07/24 10:16:12;;;;;;;13.73;6.80;;;;;;;31.20;27.16;95421.81;5032497;28;20112;-81
2022/07/24 10:18:53;;;;;;;9.65;6.55;;;;;;;31.24;26.98;95423.97;5064889;28;20448;-80
2022/07/24 10:21:20;;;;;;;9.90;6.43;;;;;;;31.39;27.63;95420.88;5065694;28;20028;-82
2022/07/24 10:24:07;;;;;;;12.93;7.00;;;;;;;31.37;27.07;95416.75;5063816;28;20116;-81
2022/07/24 10:26:36;;;;;;;12.50;6.53;;;;;;;31.57;26.24;95418.25;5074260;28;20196;-81
2022/07/24 10:29:17;;;;;;;11.25;6.70;;;;;;;31.69;25.51;95417.72;5085765;28;20016;-81
2022/07/24 10:31:54;;;;;;;10.65;6.82;;;;;;;31.83;25.45;95412.09;5084788;28;20036;-82
2022/07/24 10:34:40;;;;;;;16.27;7.10;;;;;;;31.47;27.16;95412.97;5067697;28;20032;-82
2022/07/24 10:37:36;;;;;;;13.63;6.68;;;;;;;31.28;27.27;95414.72;5067081;28;20059;-81
2022/07/24 10:40:30;;;;;;;11.55;6.88;;;;;;;31.52;26.78;95408.13;5066638;28;20649;-81
2022/07/24 10:43:05;;;;;;;10.20;6.50;;;;;;;31.70;26.68;95406.31;5069561;28;20470;-81
2022/07/24 10:45:31;;;;;;;16.60;7.00;;;;;;;31.60;26.51;95402.97;5084796;28;20551;-84
2022/07/24 10:47:57;;;;;;;9.20;6.20;;;;;;;31.48;26.58;95395.19;5066958;28;20016;-82
2022/07/24 10:50:22;;;;;;;13.82;6.90;;;;;;;31.52;26.86;95401.78;5066780;28;20495;-81
2022/07/24 10:52:47;;;;;;;13.15;6.82;;;;;;;31.72;26.43;95400.44;5066349;28;20043;-82
2022/07/24 10:55:32;;;;;;;12.65;6.85;;;;;;;31.80;26.67;95394.16;5085676;28;20050;-82
2022/07/24 10:58:02;;;;;;;10.45;6.68;;;;;;;32.14;26.67;95389.16;5049746;28;20032;-81
2022/07/24 11:00:38;;;;;;;9.93;6.30;;;;;;;32.34;27.53;95389.72;5067445;28;20020;-81
2022/07/24 11:03:05;;;;;;;12.80;6.30;;;;;;;32.49;26.67;95388.50;5050313;28;20478;-81
2022/07/24 11:05:35;;;;;;;9.95;6.85;;;;;;;32.30;26.67;95385.97;5066390;28;20028;-82
2022/07/24 11:08:19;;;;;;;12.73;6.72;;;;;;;32.46;26.59;95385.53;5067340;28;20490;-82
2022/07/24 11:10:51;;;;;;;9.38;6.85;;;;;;;32.66;27.16;95376.66;5066064;28;20469;-80
2022/07/24 11:13:32;;;;;;;9.65;7.03;;;;;;;32.20;26.58;95381.50;5050391;28;20054;-81
2022/07/24 11:16:10;;;;;;;11.48;6.80;;;;;;;32.38;27.30;95384.38;5066717;28;20483;-82
2022/07/24 11:18:38;;;;;;;10.50;6.75;;;;;;;32.35;25.76;95380.28;5084201;28;20521;-82
2022/07/24 11:21:04;;;;;;;10.27;6.20;;;;;;;32.29;25.89;95370.47;5050963;28;20053;-81
2022/07/24 11:23:29;;;;;;;9.27;6.25;;;;;;;32.29;27.31;95367.69;5049914;28;20024;-82
2022/07/24 11:26:43;;;;;;;17.77;7.55;;;;;;;32.26;27.03;95368.34;5066764;28;20032;-82